createdAt,value
2018-02-04T00:00:18.312Z,0.60
2018-02-04T00:02:46.073Z,0.50
2018-02-04T00:05:13.835Z,0.50
2018-02-04T00:07:41.651Z,0.50
2018-02-04T00:10:09.457Z,0.40
2018-02-04T00:12:37.216Z,0.30
2018-02-04T00:15:05.023Z,0.30
2018-02-04T00:17:33.548Z,0.20
2018-02-04T00:20:01.313Z,0.20
2018-02-04T00:22:38.060Z,0.20
2018-02-04T00:25:05.854Z,0.20
2018-02-04T00:27:33.615Z,0.20
2018-02-04T00:30:01.423Z,0.30
2018-02-04T00:32:29.976Z,0.40
2018-02-04T00:34:57.739Z,0.40
2018-02-04T00:37:25.563Z,0.40
2018-02-04T00:39:53.318Z,0.50
2018-02-04T00:42:21.084Z,0.60
2018-02-04T00:44:48.901Z,0.70
2018-02-04T00:47:16.657Z,0.80
2018-02-04T00:49:44.419Z,0.90
2018-02-04T00:52:12.240Z,1.00
2018-02-04T00:54:39.990Z,1.10
2018-02-04T00:57:07.748Z,1.20
2018-02-04T00:59:35.559Z,1.20
2018-02-04T01:02:03.327Z,1.20
2018-02-04T01:04:31.087Z,1.30
2018-02-04T01:06:58.898Z,1.40
2018-02-04T01:09:26.650Z,1.40
2018-02-04T01:11:54.448Z,1.40
2018-02-04T01:14:22.443Z,1.40
2018-02-04T01:16:50.204Z,1.50
2018-02-04T01:19:17.968Z,1.50
2018-02-04T01:21:45.778Z,1.50
2018-02-04T01:24:13.535Z,1.50
2018-02-04T01:26:41.296Z,1.40
2018-02-04T01:29:09.111Z,1.40
2018-02-04T01:31:36.877Z,1.40
2018-02-04T01:34:04.633Z,1.40
2018-02-04T01:36:32.457Z,1.40
2018-02-04T01:39:00.224Z,1.40
2018-02-04T01:41:28.000Z,1.50
2018-02-04T01:43:55.810Z,1.40
2018-02-04T01:46:24.332Z,1.40
2018-02-04T01:48:52.092Z,1.40
2018-02-04T01:51:19.904Z,1.30
2018-02-04T01:53:48.427Z,1.30
2018-02-04T01:56:16.199Z,1.30
2018-02-04T01:58:44.015Z,1.30
2018-02-04T02:01:12.545Z,1.40
2018-02-04T02:03:40.311Z,1.40
2018-02-04T02:06:08.123Z,1.40
2018-02-04T02:08:36.655Z,1.50
2018-02-04T02:11:05.189Z,1.50
2018-02-04T02:13:33.772Z,1.50
2018-02-04T02:16:01.537Z,1.60
2018-02-04T02:18:29.332Z,1.50
2018-02-04T02:20:57.140Z,1.60
2018-02-04T02:23:25.661Z,1.60
2018-02-04T02:25:53.415Z,1.60
2018-02-04T02:28:21.256Z,1.60
2018-02-04T02:30:49.785Z,1.50
2018-02-04T02:33:17.549Z,1.50
2018-02-04T02:35:45.362Z,1.50
2018-02-04T02:38:13.884Z,1.50
2018-02-04T02:40:41.680Z,1.50
2018-02-04T02:43:09.520Z,1.50
2018-02-04T02:45:37.272Z,1.50
2018-02-04T02:48:05.034Z,1.50
2018-02-04T02:50:32.844Z,1.50
2018-02-04T02:53:01.400Z,1.50
2018-02-04T02:55:29.158Z,1.50
2018-02-04T02:57:56.988Z,1.60
2018-02-04T03:00:24.748Z,1.60
2018-02-04T03:02:52.524Z,1.50
2018-02-04T03:05:20.336Z,1.40
2018-02-04T03:07:48.864Z,1.40
2018-02-04T03:10:16.632Z,1.40
2018-02-04T03:12:45.210Z,1.20
2018-02-04T03:15:13.277Z,1.20
2018-02-04T03:17:41.038Z,1.20
2018-02-04T03:20:08.847Z,1.20
2018-02-04T03:22:37.368Z,1.40
2018-02-04T03:25:05.152Z,1.30
2018-02-04T03:27:32.967Z,1.40
2018-02-04T03:30:01.523Z,1.40
2018-02-04T03:32:30.060Z,1.40
2018-02-04T03:34:57.876Z,1.30
2018-02-04T03:37:26.403Z,1.50
2018-02-04T03:39:54.223Z,1.50
2018-02-04T03:42:22.804Z,1.50
2018-02-04T03:44:51.331Z,1.50
2018-02-04T03:47:19.106Z,1.50
2018-02-04T03:49:46.925Z,1.40
2018-02-04T03:52:14.681Z,1.40
2018-02-04T03:54:42.437Z,1.40
2018-02-04T03:57:11.033Z,1.30
2018-02-04T03:59:38.790Z,1.30
2018-02-04T04:02:06.579Z,1.30
2018-02-04T04:04:34.462Z,1.30
2018-02-04T04:07:02.221Z,1.30
2018-02-04T04:09:29.975Z,1.40
2018-02-04T04:11:57.788Z,1.30
2018-02-04T04:14:26.330Z,1.30
2018-02-04T04:16:54.100Z,1.30
2018-02-04T04:19:21.915Z,1.30
2018-02-04T04:21:49.692Z,1.30
2018-02-04T04:24:17.459Z,1.30
2018-02-04T04:26:45.277Z,1.30
2018-02-04T04:29:13.806Z,1.40
2018-02-04T04:31:41.584Z,1.40
2018-02-04T04:34:09.395Z,1.30
2018-02-04T04:36:37.156Z,1.30
2018-02-04T04:39:04.951Z,1.30
2018-02-04T04:41:32.759Z,1.30
2018-02-04T04:44:00.519Z,1.20
2018-02-04T04:46:28.274Z,1.20
2018-02-04T04:48:56.092Z,1.20
2018-02-04T04:51:23.857Z,1.30
2018-02-04T04:53:51.620Z,1.30
2018-02-04T04:56:19.435Z,1.30
2018-02-04T04:58:47.975Z,1.10
2018-02-04T05:01:15.753Z,1.10
2018-02-04T05:03:43.630Z,1.00
2018-02-04T05:06:11.387Z,1.00
2018-02-04T05:08:39.152Z,1.00
2018-02-04T05:11:06.959Z,0.90
2018-02-04T05:13:34.718Z,0.80
2018-02-04T05:16:02.478Z,0.80
2018-02-04T05:18:30.297Z,0.70
2018-02-04T05:20:58.061Z,0.60
2018-02-04T05:23:25.824Z,0.40
2018-02-04T05:25:53.648Z,0.40
2018-02-04T05:28:21.408Z,0.30
2018-02-04T05:30:49.164Z,0.30
2018-02-04T05:33:16.971Z,0.30
2018-02-04T05:35:44.788Z,0.30
2018-02-04T05:38:12.568Z,0.30
2018-02-04T05:40:41.150Z,0.40
2018-02-04T05:43:08.948Z,0.30
2018-02-04T05:45:36.719Z,0.40
2018-02-04T05:48:05.304Z,0.50
2018-02-04T05:50:33.847Z,0.60
2018-02-04T05:53:01.621Z,0.60
2018-02-04T05:55:29.459Z,0.60
2018-02-04T05:57:57.224Z,0.60
2018-02-04T06:00:24.998Z,0.60
2018-02-04T06:02:52.811Z,0.70
2018-02-04T06:05:20.566Z,0.80
2018-02-04T06:07:48.351Z,0.90
2018-02-04T06:10:16.173Z,0.90
2018-02-04T06:12:44.696Z,1.00
2018-02-04T06:15:12.467Z,1.00
2018-02-04T06:17:40.303Z,1.10
2018-02-04T06:20:08.076Z,1.10
2018-02-04T06:22:35.851Z,1.10
2018-02-04T06:25:03.687Z,1.10
2018-02-04T06:27:31.464Z,1.20
2018-02-04T06:29:59.240Z,1.10
2018-02-04T06:32:27.057Z,1.10
2018-02-04T06:34:55.604Z,1.10
2018-02-04T06:37:23.364Z,1.10
2018-02-04T06:39:51.182Z,1.10
2018-02-04T06:42:18.964Z,1.10
2018-02-04T06:44:46.727Z,1.20
2018-02-04T06:47:14.532Z,1.30
2018-02-04T06:49:42.292Z,1.20
2018-02-04T06:52:10.048Z,1.30
2018-02-04T06:54:37.860Z,1.40
2018-02-04T06:57:05.611Z,1.30
2018-02-04T06:59:33.363Z,1.40
2018-02-04T07:02:01.940Z,1.40
2018-02-04T07:04:30.479Z,1.30
2018-02-04T07:06:58.244Z,1.30
2018-02-04T07:09:26.055Z,1.30
2018-02-04T07:11:54.588Z,1.30
2018-02-04T07:14:23.113Z,1.30
2018-02-04T07:16:51.711Z,1.20
2018-02-04T07:19:19.476Z,1.20
2018-02-04T07:21:47.259Z,1.20
2018-02-04T07:24:15.067Z,1.10
2018-02-04T07:26:43.588Z,1.20
2018-02-04T07:29:11.349Z,1.20
2018-02-04T07:31:39.155Z,1.30
2018-02-04T07:34:06.915Z,1.30
2018-02-04T07:36:34.673Z,1.40
2018-02-04T07:39:02.491Z,1.30
2018-02-04T07:41:30.248Z,1.40
2018-02-04T07:43:58.027Z,1.40
2018-02-04T07:46:25.846Z,1.40
2018-02-04T07:48:54.400Z,1.40
2018-02-04T07:51:22.157Z,1.40
2018-02-04T07:53:50.000Z,1.50
2018-02-04T07:56:17.767Z,1.60
2018-02-04T07:58:45.531Z,1.70
2018-02-04T08:01:13.342Z,1.80
2018-02-04T08:03:41.871Z,2.10
2018-02-04T08:06:09.652Z,2.10
2018-02-04T08:08:37.464Z,2.10
2018-02-04T08:11:05.222Z,2.30
2018-02-04T08:13:33.007Z,2.40
2018-02-04T08:16:00.816Z,2.50
2018-02-04T08:18:28.572Z,2.50
2018-02-04T08:20:56.364Z,2.50
2018-02-04T08:23:24.944Z,2.60
2018-02-04T08:25:53.466Z,2.60
2018-02-04T08:28:21.232Z,2.60
2018-02-04T08:30:49.042Z,2.40
2018-02-04T08:33:17.568Z,2.50
2018-02-04T08:35:45.339Z,2.40
2018-02-04T08:38:13.160Z,2.40
2018-02-04T08:40:40.920Z,2.30
2018-02-04T08:43:08.687Z,2.30
2018-02-04T08:45:36.507Z,2.30
2018-02-04T08:48:04.273Z,2.30
2018-02-04T08:50:32.043Z,2.20
2018-02-04T08:52:59.867Z,2.10
2018-02-04T08:55:27.637Z,2.20
2018-02-04T08:57:55.406Z,2.20
2018-02-04T09:00:23.225Z,2.20
2018-02-04T09:02:50.983Z,2.30
2018-02-04T09:05:18.769Z,2.30
2018-02-04T09:07:46.579Z,2.40
2018-02-04T09:10:14.344Z,2.30
2018-02-04T09:12:42.099Z,2.20
2018-02-04T09:15:09.975Z,2.10
2018-02-04T09:17:38.507Z,2.10
2018-02-04T09:20:06.275Z,2.10
2018-02-04T09:22:34.859Z,2.10
2018-02-04T09:25:02.624Z,2.10
2018-02-04T09:27:30.387Z,2.00
2018-02-04T09:29:58.204Z,2.10
2018-02-04T09:32:26.001Z,2.00
2018-02-04T09:34:53.765Z,2.00
2018-02-04T09:37:21.591Z,2.10
2018-02-04T09:39:49.381Z,2.20
2018-02-04T09:42:17.189Z,2.20
2018-02-04T09:44:45.780Z,2.10
2018-02-04T09:47:14.303Z,2.10
2018-02-04T09:49:42.071Z,2.10
2018-02-04T09:52:09.984Z,2.20
2018-02-04T09:54:38.508Z,2.10
2018-02-04T09:57:06.268Z,2.10
2018-02-04T09:59:34.076Z,2.20
2018-02-04T10:02:01.966Z,2.30
2018-02-04T10:04:29.752Z,2.40
2018-02-04T10:07:00.388Z,2.40
2018-02-04T10:09:28.589Z,2.50
2018-02-04T10:11:56.520Z,2.60
2018-02-04T10:14:25.230Z,2.70
2018-02-04T10:16:53.001Z,2.70
2018-02-04T10:19:20.781Z,2.70
2018-02-04T10:21:53.529Z,2.70
2018-02-04T10:24:21.333Z,2.70
2018-02-04T10:26:50.063Z,2.80
2018-02-04T10:29:17.892Z,2.80
2018-02-04T10:31:46.416Z,2.80
2018-02-04T10:34:14.197Z,2.80
2018-02-04T10:36:42.071Z,2.80
2018-02-04T10:39:09.911Z,2.90
2018-02-04T10:41:37.695Z,3.00
2018-02-04T10:44:05.561Z,3.00
2018-02-04T10:46:33.333Z,2.90
2018-02-04T10:49:01.939Z,3.10
2018-02-04T10:51:35.524Z,3.10
2018-02-04T10:54:04.072Z,3.20
2018-02-04T10:56:31.828Z,3.10
2018-02-04T10:58:59.666Z,3.10
2018-02-04T11:01:27.440Z,3.20
2018-02-04T11:03:55.221Z,3.20
2018-02-04T11:06:23.120Z,3.20
2018-02-04T11:08:51.685Z,3.20
2018-02-04T11:11:19.464Z,3.20
2018-02-04T11:13:48.048Z,3.50
2018-02-04T11:16:16.681Z,3.50
2018-02-04T11:18:44.547Z,3.50
2018-02-04T11:21:12.412Z,3.60
2018-02-04T11:23:40.238Z,3.70
2018-02-04T11:26:09.012Z,3.70
2018-02-04T11:28:36.883Z,3.70
2018-02-04T11:31:16.760Z,3.60
2018-02-04T11:33:44.591Z,3.50
2018-02-04T11:36:12.465Z,3.50
2018-02-04T11:38:40.879Z,3.40
2018-02-04T11:41:08.714Z,3.40
2018-02-04T11:43:37.288Z,3.20
2018-02-04T11:46:05.063Z,3.20
2018-02-04T11:48:32.912Z,3.20
2018-02-04T11:51:00.714Z,3.10
2018-02-04T11:53:28.487Z,3.10
2018-02-04T11:55:56.320Z,3.10
2018-02-04T11:58:24.084Z,3.00
2018-02-04T12:00:51.868Z,3.00
2018-02-04T12:03:19.685Z,3.00
2018-02-04T12:05:47.450Z,2.90
2018-02-04T12:08:15.241Z,2.90
2018-02-04T12:10:43.062Z,3.00
2018-02-04T12:13:10.892Z,2.80
2018-02-04T12:15:39.426Z,2.60
2018-02-04T12:18:07.247Z,2.60
2018-02-04T12:20:35.780Z,2.70
2018-02-04T12:23:03.562Z,2.70
2018-02-04T12:25:31.379Z,2.70
2018-02-04T12:27:59.140Z,2.80
2018-02-04T12:30:26.900Z,2.90
2018-02-04T12:32:54.725Z,3.00
2018-02-04T12:35:22.489Z,3.10
2018-02-04T12:37:50.247Z,3.30
2018-02-04T12:40:18.931Z,3.30
2018-02-04T12:42:46.692Z,3.40
2018-02-04T12:45:14.453Z,3.40
2018-02-04T12:47:42.263Z,3.40
2018-02-04T12:50:10.031Z,3.40
2018-02-04T12:52:37.805Z,3.50
2018-02-04T12:55:05.618Z,3.40
2018-02-04T12:57:34.284Z,3.40
2018-02-04T13:00:02.040Z,3.40
2018-02-04T13:02:29.892Z,3.30
2018-02-04T13:04:57.668Z,3.30
2018-02-04T13:07:25.447Z,3.30
2018-02-04T13:09:54.036Z,3.20
2018-02-04T13:12:22.564Z,3.10
2018-02-04T13:14:50.321Z,3.10
2018-02-04T13:17:18.128Z,3.20
2018-02-04T13:19:45.888Z,3.10
2018-02-04T13:22:13.699Z,3.00
2018-02-04T13:24:41.507Z,3.00
2018-02-04T13:27:09.271Z,2.90
2018-02-04T13:29:37.800Z,3.10
2018-02-04T13:32:05.612Z,3.10
2018-02-04T13:34:33.374Z,3.20
2018-02-04T13:37:01.132Z,3.20
2018-02-04T13:39:28.948Z,3.20
2018-02-04T13:41:56.731Z,3.20
2018-02-04T13:44:24.507Z,3.20
2018-02-04T13:46:52.330Z,3.10
2018-02-04T13:49:20.096Z,3.00
2018-02-04T13:51:47.854Z,2.90
2018-02-04T13:54:15.688Z,2.90
2018-02-04T13:56:44.219Z,3.10
2018-02-04T13:59:11.978Z,3.10
2018-02-04T14:01:40.007Z,3.10
2018-02-04T14:04:08.527Z,2.70
2018-02-04T14:06:36.282Z,2.70
2018-02-04T14:09:04.171Z,2.70
2018-02-04T14:11:31.928Z,2.60
2018-02-04T14:13:59.691Z,2.60
2018-02-04T14:16:27.508Z,2.60
2018-02-04T14:18:55.264Z,2.60
2018-02-04T14:21:23.049Z,2.70
2018-02-04T14:23:50.880Z,2.80
2018-02-04T14:26:19.443Z,2.80
2018-02-04T14:28:47.200Z,2.80
2018-02-04T14:31:15.016Z,2.70
2018-02-04T14:33:42.776Z,2.70
2018-02-04T14:36:10.548Z,2.50
2018-02-04T14:38:38.356Z,2.50
2018-02-04T14:41:06.116Z,2.50
2018-02-04T14:43:33.876Z,2.50
2018-02-04T14:46:01.688Z,2.40
2018-02-04T14:48:29.447Z,2.40
2018-02-04T14:50:57.208Z,2.30
2018-02-04T14:53:25.021Z,2.30
2018-02-04T14:55:52.819Z,2.30
2018-02-04T14:58:20.600Z,2.30
2018-02-04T15:00:48.410Z,2.30
2018-02-04T15:03:16.192Z,2.30
2018-02-04T15:05:55.935Z,2.20
2018-02-04T15:08:24.464Z,2.30
2018-02-04T15:10:52.272Z,2.20
2018-02-04T15:13:20.829Z,2.20
2018-02-04T15:15:48.596Z,2.10
2018-02-04T15:18:16.414Z,2.10
2018-02-04T15:20:44.171Z,2.10
2018-02-04T15:23:11.944Z,2.10
2018-02-04T15:25:39.780Z,2.10
2018-02-04T15:28:07.539Z,2.10
2018-02-04T15:30:35.300Z,2.10
2018-02-04T15:33:03.115Z,2.10
2018-02-04T15:35:30.883Z,2.00
2018-02-04T15:37:58.636Z,2.00
2018-02-04T15:40:27.837Z,2.00
2018-02-04T15:42:55.597Z,2.00
2018-02-04T15:45:23.362Z,1.80
2018-02-04T15:47:51.184Z,1.70
2018-02-04T15:50:18.974Z,1.60
2018-02-04T15:52:46.804Z,1.50
2018-02-04T15:55:14.659Z,1.50
2018-02-04T15:57:42.491Z,1.50
2018-02-04T16:00:10.254Z,1.60
2018-02-04T16:02:38.092Z,1.60
2018-02-04T16:05:05.871Z,1.60
2018-02-04T16:07:33.838Z,1.50
2018-02-04T16:10:12.083Z,1.50
2018-02-04T16:12:53.429Z,1.50
2018-02-04T16:15:32.294Z,1.40
2018-02-04T16:18:00.105Z,1.40
2018-02-04T16:20:27.875Z,1.40
2018-02-04T16:22:55.702Z,1.50
2018-02-04T16:25:23.480Z,1.50
2018-02-04T16:27:51.315Z,1.50
2018-02-04T16:30:19.144Z,1.60
2018-02-04T16:32:47.697Z,1.60
2018-02-04T16:35:15.455Z,1.60
2018-02-04T16:37:43.832Z,1.60
2018-02-04T16:40:11.896Z,1.60
2018-02-04T16:42:39.957Z,1.60
2018-02-04T16:45:08.456Z,1.60
2018-02-04T16:47:37.400Z,1.60
2018-02-04T16:50:06.740Z,1.60
2018-02-04T16:52:35.012Z,1.60
2018-02-04T16:55:02.982Z,1.50
2018-02-04T16:57:30.751Z,1.50
2018-02-04T16:59:58.571Z,1.60
2018-02-04T17:02:26.416Z,1.60
2018-02-04T17:04:54.180Z,1.50
2018-02-04T17:07:22.080Z,1.50
2018-02-04T17:09:54.991Z,1.50
2018-02-04T17:12:24.281Z,1.50
2018-02-04T17:14:52.239Z,1.40
2018-02-04T17:17:20.055Z,1.40
2018-02-04T17:19:47.930Z,1.40
2018-02-04T17:22:15.745Z,1.40
2018-02-04T17:24:43.564Z,1.50
2018-02-04T17:27:11.434Z,1.50
2018-02-04T17:29:39.196Z,1.50
2018-02-04T17:32:07.027Z,1.50
2018-02-04T17:34:34.837Z,1.50
2018-02-04T17:37:02.592Z,1.40
2018-02-04T17:39:30.421Z,1.40
2018-02-04T17:41:58.244Z,1.40
2018-02-04T17:44:26.024Z,1.50
2018-02-04T17:46:54.578Z,1.40
2018-02-04T17:49:22.479Z,1.40
2018-02-04T17:51:50.256Z,1.40
2018-02-04T17:54:18.053Z,1.40
2018-02-04T17:56:45.909Z,1.40
2018-02-04T17:59:13.686Z,1.40
2018-02-04T18:01:41.500Z,1.40
2018-02-04T18:04:09.330Z,1.40
2018-02-04T18:06:38.307Z,1.40
2018-02-04T18:09:06.135Z,1.30
2018-02-04T18:11:34.089Z,1.30
2018-02-04T18:14:01.887Z,1.30
2018-02-04T18:16:29.648Z,1.40
2018-02-04T18:18:57.478Z,1.40
2018-02-04T18:21:25.269Z,1.40
2018-02-04T18:23:53.033Z,1.40
2018-02-04T18:26:20.844Z,1.40
2018-02-04T18:28:49.372Z,1.50
2018-02-04T18:31:17.140Z,1.50
2018-02-04T18:33:44.959Z,1.40
2018-02-04T18:36:13.488Z,1.40
2018-02-04T18:38:41.255Z,1.40
2018-02-04T18:41:09.072Z,1.40
2018-02-04T18:43:36.852Z,1.40
2018-02-04T18:46:04.612Z,1.40
2018-02-04T18:48:32.424Z,1.40
2018-02-04T18:51:00.184Z,1.40
2018-02-04T18:53:27.941Z,1.50
2018-02-04T18:55:55.904Z,1.40
2018-02-04T18:58:23.676Z,1.50
2018-02-04T19:00:51.432Z,1.50
2018-02-04T19:03:19.269Z,1.40
2018-02-04T19:05:47.027Z,1.50
2018-02-04T19:08:14.793Z,1.50
2018-02-04T19:10:42.675Z,1.40
2018-02-04T19:13:10.452Z,1.40
2018-02-04T19:15:38.231Z,1.40
2018-02-04T19:18:06.819Z,1.40
2018-02-04T19:20:35.344Z,1.40
2018-02-04T19:23:03.104Z,1.30
2018-02-04T19:25:30.924Z,1.30
2018-02-04T19:27:58.691Z,1.30
2018-02-04T19:30:26.451Z,1.30
2018-02-04T19:32:54.266Z,1.40
2018-02-04T19:35:22.797Z,1.40
2018-02-04T19:37:50.580Z,1.30
2018-02-04T19:40:18.392Z,1.40
2018-02-04T19:42:46.165Z,1.40
2018-02-04T19:45:14.691Z,1.30
2018-02-04T19:47:42.509Z,1.30
2018-02-04T19:50:11.039Z,1.30
2018-02-04T19:52:39.584Z,1.40
2018-02-04T19:55:07.408Z,1.30
2018-02-04T19:57:35.177Z,1.30
2018-02-04T20:00:02.964Z,1.40
2018-02-04T20:02:31.547Z,1.30
2018-02-04T20:04:59.314Z,1.30
2018-02-04T20:07:27.081Z,1.30
2018-02-04T20:09:54.944Z,1.30
2018-02-04T20:12:29.909Z,1.30
2018-02-04T20:14:57.766Z,1.30
2018-02-04T20:17:25.567Z,1.40
2018-02-04T20:19:53.367Z,1.40
2018-02-04T20:22:21.189Z,1.40
2018-02-04T20:24:48.956Z,1.30
2018-02-04T20:27:16.728Z,1.30
2018-02-04T20:29:45.304Z,1.30
2018-02-04T20:32:25.704Z,1.30
2018-02-04T20:34:53.592Z,1.30
2018-02-04T20:37:21.363Z,1.30
2018-02-04T20:39:49.151Z,1.30
2018-02-04T20:42:17.807Z,1.40
2018-02-04T20:44:46.346Z,1.30
2018-02-04T20:47:14.189Z,1.30
2018-02-04T20:49:42.017Z,1.20
2018-02-04T20:52:11.821Z,1.10
2018-02-04T20:54:40.021Z,1.10
2018-02-04T20:57:08.604Z,1.20
2018-02-04T20:59:38.178Z,1.20
2018-02-04T21:02:06.460Z,1.20
2018-02-04T21:04:34.274Z,1.20
2018-02-04T21:07:02.035Z,1.30
2018-02-04T21:09:29.833Z,1.40
2018-02-04T21:11:57.703Z,1.30
2018-02-04T21:14:25.484Z,1.30
2018-02-04T21:16:53.244Z,1.30
2018-02-04T21:19:21.114Z,1.30
2018-02-04T21:21:49.647Z,1.30
2018-02-04T21:24:17.413Z,1.30
2018-02-04T21:26:45.256Z,1.30
2018-02-04T21:29:13.024Z,1.30
2018-02-04T21:31:40.795Z,1.30
2018-02-04T21:34:08.611Z,1.30
2018-02-04T21:36:37.148Z,1.30
2018-02-04T21:39:04.935Z,1.30
2018-02-04T21:41:32.761Z,1.30
2018-02-04T21:44:00.518Z,1.30
2018-02-04T21:46:28.290Z,1.30
2018-02-04T21:48:56.099Z,1.20
2018-02-04T21:51:23.856Z,1.30
2018-02-04T21:53:51.660Z,1.20
2018-02-04T21:56:19.624Z,1.20
2018-02-04T21:58:47.384Z,1.20
2018-02-04T22:01:15.160Z,1.20
2018-02-04T22:03:42.976Z,1.20
2018-02-04T22:06:10.744Z,1.10
2018-02-04T22:08:39.271Z,1.10
2018-02-04T22:11:07.085Z,1.10
2018-02-04T22:13:35.655Z,1.10
2018-02-04T22:16:03.415Z,1.10
2018-02-04T22:18:31.227Z,1.10
2018-02-04T22:20:58.975Z,1.20
2018-02-04T22:23:26.772Z,1.10
2018-02-04T22:25:54.589Z,1.20
2018-02-04T22:28:23.117Z,1.20
2018-02-04T22:30:50.883Z,1.20
2018-02-04T22:33:18.693Z,1.10
2018-02-04T22:35:47.215Z,1.10
2018-02-04T22:38:14.977Z,1.20
2018-02-04T22:40:42.793Z,1.10
2018-02-04T22:43:11.320Z,1.00
2018-02-04T22:45:39.082Z,1.00
2018-02-04T22:48:06.900Z,1.00
2018-02-04T22:50:34.660Z,1.00
2018-02-04T22:53:03.176Z,0.90
2018-02-04T22:55:31.013Z,0.90
2018-02-04T22:57:58.797Z,0.80
2018-02-04T23:00:26.555Z,0.80
2018-02-04T23:02:54.372Z,0.90
2018-02-04T23:05:22.135Z,0.90
2018-02-04T23:07:49.902Z,0.80
2018-02-04T23:10:17.714Z,0.80
2018-02-04T23:12:45.511Z,0.80
2018-02-04T23:15:13.284Z,0.80
2018-02-04T23:17:41.133Z,0.90
2018-02-04T23:20:08.915Z,0.90
2018-02-04T23:22:37.441Z,0.80
2018-02-04T23:25:05.274Z,0.80
2018-02-04T23:27:33.052Z,0.80
2018-02-04T23:30:00.816Z,0.80
2018-02-04T23:32:28.641Z,0.80
2018-02-04T23:34:56.395Z,0.90
2018-02-04T23:37:24.151Z,0.90
2018-02-04T23:39:51.972Z,0.90
2018-02-04T23:42:19.731Z,0.90
2018-02-04T23:44:47.486Z,1.00
2018-02-04T23:47:15.298Z,1.00
2018-02-04T23:49:43.050Z,1.00
2018-02-04T23:52:10.818Z,1.00
2018-02-04T23:54:38.632Z,1.00
2018-02-04T23:57:06.412Z,1.00
2018-02-04T23:59:34.231Z,1.00
